sensor_id;sensor_type;location;lat;lon;timestamp;temperature;humidity
46676;DHT22;32412;51.478;5.694;2023-08-06T00:00:47;15.20;99.90
46676;DHT22;32412;51.478;5.694;2023-08-06T00:03:13;15.10;99.90
46676;DHT22;32412;51.478;5.694;2023-08-06T00:05:41;15.20;99.90
46676;DHT22;32412;51.478;5.694;2023-08-06T00:08:08;15.20;99.90
46676;DHT22;32412;51.478;5.694;2023-08-06T00:10:34;15.10;99.90
46676;DHT22;32412;51.478;5.694;2023-08-06T00:12:59;15.10;99.90
46676;DHT22;32412;51.478;5.694;2023-08-06T00:15:25;15.10;99.90
46676;DHT22;32412;51.478;5.694;2023-08-06T00:17:50;15.20;99.90
46676;DHT22;32412;51.478;5.694;2023-08-06T00:20:16;15.10;99.90
46676;DHT22;32412;51.478;5.694;2023-08-06T00:22:42;15.20;99.90
46676;DHT22;32412;51.478;5.694;2023-08-06T00:25:08;15.10;99.90
46676;DHT22;32412;51.478;5.694;2023-08-06T00:27:33;15.10;99.90
46676;DHT22;32412;51.478;5.694;2023-08-06T00:29:59;15.10;99.90
46676;DHT22;32412;51.478;5.694;2023-08-06T00:32:25;15.20;99.90
46676;DHT22;32412;51.478;5.694;2023-08-06T00:34:52;15.10;99.90
46676;DHT22;32412;51.478;5.694;2023-08-06T00:37:17;15.10;99.90
46676;DHT22;32412;51.478;5.694;2023-08-06T00:39:43;15.10;99.90
46676;DHT22;32412;51.478;5.694;2023-08-06T00:42:10;15.10;99.90
46676;DHT22;32412;51.478;5.694;2023-08-06T00:44:36;15.00;99.90
46676;DHT22;32412;51.478;5.694;2023-08-06T00:47:02;15.10;99.90
46676;DHT22;32412;51.478;5.694;2023-08-06T00:49:28;15.00;99.90
46676;DHT22;32412;51.478;5.694;2023-08-06T00:51:55;15.00;99.90
46676;DHT22;32412;51.478;5.694;2023-08-06T00:54:21;15.00;99.90
46676;DHT22;32412;51.478;5.694;2023-08-06T00:56:47;15.00;99.90
46676;DHT22;32412;51.478;5.694;2023-08-06T00:59:13;15.00;99.90
46676;DHT22;32412;51.478;5.694;2023-08-06T01:01:39;15.00;99.90
46676;DHT22;32412;51.478;5.694;2023-08-06T01:04:05;15.00;99.90
46676;DHT22;32412;51.478;5.694;2023-08-06T01:06:47;15.00;99.90
46676;DHT22;32412;51.478;5.694;2023-08-06T01:09:35;15.00;99.90
46676;DHT22;32412;51.478;5.694;2023-08-06T01:15:10;15.00;99.90
46676;DHT22;32412;51.478;5.694;2023-08-06T01:17:37;15.00;99.90
46676;DHT22;32412;51.478;5.694;2023-08-06T01:20:03;15.00;99.90
46676;DHT22;32412;51.478;5.694;2023-08-06T01:22:29;15.00;99.90
46676;DHT22;32412;51.478;5.694;2023-08-06T01:24:55;15.00;99.90
46676;DHT22;32412;51.478;5.694;2023-08-06T01:30:27;15.00;99.90
46676;DHT22;32412;51.478;5.694;2023-08-06T01:32:58;15.00;99.90
46676;DHT22;32412;51.478;5.694;2023-08-06T01:35:27;15.00;99.90
46676;DHT22;32412;51.478;5.694;2023-08-06T01:37:54;15.00;99.90
46676;DHT22;32412;51.478;5.694;2023-08-06T01:40:22;15.00;99.90
46676;DHT22;32412;51.478;5.694;2023-08-06T01:42:47;15.00;99.90
46676;DHT22;32412;51.478;5.694;2023-08-06T01:45:13;15.00;99.90
46676;DHT22;32412;51.478;5.694;2023-08-06T01:47:39;15.00;99.90
46676;DHT22;32412;51.478;5.694;2023-08-06T01:50:05;15.00;99.90
46676;DHT22;32412;51.478;5.694;2023-08-06T01:52:30;15.00;99.90
46676;DHT22;32412;51.478;5.694;2023-08-06T01:54:56;15.00;99.90
46676;DHT22;32412;51.478;5.694;2023-08-06T01:57:22;15.00;99.90
46676;DHT22;32412;51.478;5.694;2023-08-06T01:59:47;15.00;99.90
46676;DHT22;32412;51.478;5.694;2023-08-06T02:02:13;15.00;99.90
46676;DHT22;32412;51.478;5.694;2023-08-06T02:04:39;15.00;99.90
46676;DHT22;32412;51.478;5.694;2023-08-06T02:07:04;15.00;99.90
46676;DHT22;32412;51.478;5.694;2023-08-06T02:09:31;15.00;99.90
46676;DHT22;32412;51.478;5.694;2023-08-06T02:11:57;15.00;99.90
46676;DHT22;32412;51.478;5.694;2023-08-06T02:14:22;15.00;99.90
46676;DHT22;32412;51.478;5.694;2023-08-06T02:16:48;15.00;99.90
46676;DHT22;32412;51.478;5.694;2023-08-06T02:19:15;15.00;99.90
46676;DHT22;32412;51.478;5.694;2023-08-06T02:21:40;15.00;99.90
46676;DHT22;32412;51.478;5.694;2023-08-06T02:24:06;15.00;99.90
46676;DHT22;32412;51.478;5.694;2023-08-06T02:26:31;14.90;99.90
46676;DHT22;32412;51.478;5.694;2023-08-06T02:28:57;14.90;99.90
46676;DHT22;32412;51.478;5.694;2023-08-06T02:31:23;14.90;99.90
46676;DHT22;32412;51.478;5.694;2023-08-06T02:33:48;14.90;99.90
46676;DHT22;32412;51.478;5.694;2023-08-06T02:36:14;14.90;99.90
46676;DHT22;32412;51.478;5.694;2023-08-06T02:38:40;14.90;99.90
46676;DHT22;32412;51.478;5.694;2023-08-06T02:41:05;14.90;99.90
46676;DHT22;32412;51.478;5.694;2023-08-06T02:43:31;14.90;99.90
46676;DHT22;32412;51.478;5.694;2023-08-06T02:46:00;14.90;99.90
46676;DHT22;32412;51.478;5.694;2023-08-06T02:48:26;14.90;99.90
46676;DHT22;32412;51.478;5.694;2023-08-06T02:50:52;14.80;99.90
46676;DHT22;32412;51.478;5.694;2023-08-06T02:53:17;14.70;99.90
46676;DHT22;32412;51.478;5.694;2023-08-06T02:55:47;14.80;99.90
46676;DHT22;32412;51.478;5.694;2023-08-06T02:58:14;14.70;99.90
46676;DHT22;32412;51.478;5.694;2023-08-06T03:00:40;14.70;99.90
46676;DHT22;32412;51.478;5.694;2023-08-06T03:03:05;14.70;99.90
46676;DHT22;32412;51.478;5.694;2023-08-06T03:05:31;14.60;99.90
46676;DHT22;32412;51.478;5.694;2023-08-06T03:07:57;14.60;99.90
46676;DHT22;32412;51.478;5.694;2023-08-06T03:10:24;14.60;99.90
46676;DHT22;32412;51.478;5.694;2023-08-06T03:12:49;14.60;99.90
46676;DHT22;32412;51.478;5.694;2023-08-06T03:15:15;14.60;99.90
46676;DHT22;32412;51.478;5.694;2023-08-06T03:17:41;14.50;99.90
46676;DHT22;32412;51.478;5.694;2023-08-06T03:20:07;14.50;99.90
46676;DHT22;32412;51.478;5.694;2023-08-06T03:22:32;14.50;99.90
46676;DHT22;32412;51.478;5.694;2023-08-06T03:24:58;14.50;99.90
46676;DHT22;32412;51.478;5.694;2023-08-06T03:27:23;14.50;99.90
46676;DHT22;32412;51.478;5.694;2023-08-06T03:29:50;14.40;99.90
46676;DHT22;32412;51.478;5.694;2023-08-06T03:32:15;14.40;99.90
46676;DHT22;32412;51.478;5.694;2023-08-06T03:34:41;14.40;99.90
46676;DHT22;32412;51.478;5.694;2023-08-06T03:37:07;14.50;99.90
46676;DHT22;32412;51.478;5.694;2023-08-06T03:39:32;14.40;99.90
46676;DHT22;32412;51.478;5.694;2023-08-06T03:41:58;14.40;99.90
46676;DHT22;32412;51.478;5.694;2023-08-06T03:44:24;14.40;99.90
46676;DHT22;32412;51.478;5.694;2023-08-06T03:46:49;14.40;99.90
46676;DHT22;32412;51.478;5.694;2023-08-06T03:49:15;14.40;99.90
46676;DHT22;32412;51.478;5.694;2023-08-06T03:51:40;14.40;99.90
46676;DHT22;32412;51.478;5.694;2023-08-06T03:54:06;14.40;99.90
46676;DHT22;32412;51.478;5.694;2023-08-06T03:56:32;14.40;99.90
46676;DHT22;32412;51.478;5.694;2023-08-06T03:58:57;14.40;99.90
46676;DHT22;32412;51.478;5.694;2023-08-06T04:01:23;14.40;99.90
46676;DHT22;32412;51.478;5.694;2023-08-06T04:03:48;14.40;99.90
46676;DHT22;32412;51.478;5.694;2023-08-06T04:06:14;14.50;99.90
46676;DHT22;32412;51.478;5.694;2023-08-06T04:08:40;14.40;99.90
46676;DHT22;32412;51.478;5.694;2023-08-06T04:11:05;14.40;99.90
46676;DHT22;32412;51.478;5.694;2023-08-06T04:13:31;14.40;99.90
46676;DHT22;32412;51.478;5.694;2023-08-06T04:16:01;14.40;99.90
46676;DHT22;32412;51.478;5.694;2023-08-06T04:18:27;14.30;99.90
46676;DHT22;32412;51.478;5.694;2023-08-06T04:20:53;14.40;99.90
46676;DHT22;32412;51.478;5.694;2023-08-06T04:23:20;14.30;99.90
46676;DHT22;32412;51.478;5.694;2023-08-06T04:25:46;14.40;99.90
46676;DHT22;32412;51.478;5.694;2023-08-06T04:28:12;14.40;99.90
46676;DHT22;32412;51.478;5.694;2023-08-06T04:30:38;14.40;99.90
46676;DHT22;32412;51.478;5.694;2023-08-06T04:33:03;14.50;99.90
46676;DHT22;32412;51.478;5.694;2023-08-06T04:35:29;14.50;99.90
46676;DHT22;32412;51.478;5.694;2023-08-06T04:37:55;14.50;99.90
46676;DHT22;32412;51.478;5.694;2023-08-06T04:40:20;14.60;99.90
46676;DHT22;32412;51.478;5.694;2023-08-06T04:42:46;14.60;99.90
46676;DHT22;32412;51.478;5.694;2023-08-06T04:45:12;14.70;99.90
46676;DHT22;32412;51.478;5.694;2023-08-06T04:47:37;14.70;99.90
46676;DHT22;32412;51.478;5.694;2023-08-06T04:50:03;14.70;99.90
46676;DHT22;32412;51.478;5.694;2023-08-06T04:52:29;14.80;99.90
46676;DHT22;32412;51.478;5.694;2023-08-06T04:54:55;14.80;99.90
46676;DHT22;32412;51.478;5.694;2023-08-06T04:57:22;14.80;99.90
46676;DHT22;32412;51.478;5.694;2023-08-06T04:59:47;14.80;99.90
46676;DHT22;32412;51.478;5.694;2023-08-06T05:02:14;14.80;99.90
46676;DHT22;32412;51.478;5.694;2023-08-06T05:04:39;14.80;99.90
46676;DHT22;32412;51.478;5.694;2023-08-06T05:07:08;14.80;99.90
46676;DHT22;32412;51.478;5.694;2023-08-06T05:09:33;14.90;99.90
46676;DHT22;32412;51.478;5.694;2023-08-06T05:12:04;14.90;99.90
46676;DHT22;32412;51.478;5.694;2023-08-06T05:14:30;15.00;99.90
46676;DHT22;32412;51.478;5.694;2023-08-06T05:16:55;14.90;99.90
46676;DHT22;32412;51.478;5.694;2023-08-06T05:19:21;14.90;99.90
46676;DHT22;32412;51.478;5.694;2023-08-06T05:21:47;14.90;99.90
46676;DHT22;32412;51.478;5.694;2023-08-06T05:24:12;14.90;99.90
46676;DHT22;32412;51.478;5.694;2023-08-06T05:26:38;14.90;99.90
46676;DHT22;32412;51.478;5.694;2023-08-06T05:29:03;14.90;99.90
46676;DHT22;32412;51.478;5.694;2023-08-06T05:31:29;14.90;99.90
46676;DHT22;32412;51.478;5.694;2023-08-06T05:33:55;14.90;99.90
46676;DHT22;32412;51.478;5.694;2023-08-06T05:36:20;14.90;99.90
46676;DHT22;32412;51.478;5.694;2023-08-06T05:38:46;15.00;99.90
46676;DHT22;32412;51.478;5.694;2023-08-06T05:41:12;15.00;99.90
46676;DHT22;32412;51.478;5.694;2023-08-06T05:43:38;15.10;99.90
46676;DHT22;32412;51.478;5.694;2023-08-06T05:46:04;15.20;99.90
46676;DHT22;32412;51.478;5.694;2023-08-06T05:48:29;15.20;99.90
46676;DHT22;32412;51.478;5.694;2023-08-06T05:50:55;15.20;99.90
46676;DHT22;32412;51.478;5.694;2023-08-06T05:53:21;15.30;99.90
46676;DHT22;32412;51.478;5.694;2023-08-06T05:55:47;15.30;99.90
46676;DHT22;32412;51.478;5.694;2023-08-06T05:58:12;15.30;99.90
46676;DHT22;32412;51.478;5.694;2023-08-06T06:00:38;15.30;99.90
46676;DHT22;32412;51.478;5.694;2023-08-06T06:03:04;15.30;99.90
46676;DHT22;32412;51.478;5.694;2023-08-06T06:05:29;15.30;99.90
46676;DHT22;32412;51.478;5.694;2023-08-06T06:07:55;15.40;99.90
46676;DHT22;32412;51.478;5.694;2023-08-06T06:10:20;15.40;99.90
46676;DHT22;32412;51.478;5.694;2023-08-06T06:12:46;15.40;99.90
46676;DHT22;32412;51.478;5.694;2023-08-06T06:15:12;15.40;99.90
46676;DHT22;32412;51.478;5.694;2023-08-06T06:17:38;15.40;99.90
46676;DHT22;32412;51.478;5.694;2023-08-06T06:20:04;15.40;99.90
46676;DHT22;32412;51.478;5.694;2023-08-06T06:22:30;15.50;99.90
46676;DHT22;32412;51.478;5.694;2023-08-06T06:24:56;15.40;99.90
46676;DHT22;32412;51.478;5.694;2023-08-06T06:27:21;15.50;99.90
46676;DHT22;32412;51.478;5.694;2023-08-06T06:29:48;15.60;99.90
46676;DHT22;32412;51.478;5.694;2023-08-06T06:32:14;15.70;99.90
46676;DHT22;32412;51.478;5.694;2023-08-06T06:34:40;15.70;99.90
46676;DHT22;32412;51.478;5.694;2023-08-06T06:37:05;15.80;99.90
46676;DHT22;32412;51.478;5.694;2023-08-06T06:39:31;15.90;99.90
46676;DHT22;32412;51.478;5.694;2023-08-06T06:41:57;16.00;99.90
46676;DHT22;32412;51.478;5.694;2023-08-06T06:44:22;16.20;99.90
46676;DHT22;32412;51.478;5.694;2023-08-06T06:46:48;16.40;99.90
46676;DHT22;32412;51.478;5.694;2023-08-06T06:49:14;16.50;99.90
46676;DHT22;32412;51.478;5.694;2023-08-06T06:51:39;16.60;99.90
46676;DHT22;32412;51.478;5.694;2023-08-06T06:54:05;16.80;99.90
46676;DHT22;32412;51.478;5.694;2023-08-06T06:56:30;16.90;99.90
46676;DHT22;32412;51.478;5.694;2023-08-06T06:58:56;17.10;99.90
46676;DHT22;32412;51.478;5.694;2023-08-06T07:01:21;17.20;99.90
46676;DHT22;32412;51.478;5.694;2023-08-06T07:03:47;17.20;99.90
46676;DHT22;32412;51.478;5.694;2023-08-06T07:06:13;17.10;99.90
46676;DHT22;32412;51.478;5.694;2023-08-06T07:08:41;17.30;99.90
46676;DHT22;32412;51.478;5.694;2023-08-06T07:11:06;17.30;99.90
46676;DHT22;32412;51.478;5.694;2023-08-06T07:13:33;17.40;99.90
46676;DHT22;32412;51.478;5.694;2023-08-06T07:15:59;17.40;99.90
46676;DHT22;32412;51.478;5.694;2023-08-06T07:18:25;17.60;99.90
46676;DHT22;32412;51.478;5.694;2023-08-06T07:20:51;17.60;99.90
46676;DHT22;32412;51.478;5.694;2023-08-06T07:23:19;17.70;99.90
46676;DHT22;32412;51.478;5.694;2023-08-06T07:25:46;17.70;99.90
46676;DHT22;32412;51.478;5.694;2023-08-06T07:28:13;17.70;99.90
46676;DHT22;32412;51.478;5.694;2023-08-06T07:30:39;17.50;99.90
46676;DHT22;32412;51.478;5.694;2023-08-06T07:33:05;17.40;99.90
46676;DHT22;32412;51.478;5.694;2023-08-06T07:35:31;17.20;99.90
46676;DHT22;32412;51.478;5.694;2023-08-06T07:37:57;17.30;99.90
46676;DHT22;32412;51.478;5.694;2023-08-06T07:40:23;17.50;99.90
46676;DHT22;32412;51.478;5.694;2023-08-06T07:42:49;17.70;99.90
46676;DHT22;32412;51.478;5.694;2023-08-06T07:45:14;18.00;99.90
46676;DHT22;32412;51.478;5.694;2023-08-06T07:47:40;17.90;99.90
46676;DHT22;32412;51.478;5.694;2023-08-06T07:50:06;17.80;99.90
46676;DHT22;32412;51.478;5.694;2023-08-06T07:52:32;17.70;99.90
46676;DHT22;32412;51.478;5.694;2023-08-06T07:54:57;17.50;99.90
46676;DHT22;32412;51.478;5.694;2023-08-06T07:57:24;17.40;99.90
46676;DHT22;32412;51.478;5.694;2023-08-06T07:59:49;17.20;99.90
46676;DHT22;32412;51.478;5.694;2023-08-06T08:02:15;16.90;99.90
46676;DHT22;32412;51.478;5.694;2023-08-06T08:04:41;16.70;99.90
46676;DHT22;32412;51.478;5.694;2023-08-06T08:07:07;16.50;99.90
46676;DHT22;32412;51.478;5.694;2023-08-06T08:09:34;16.40;99.90
46676;DHT22;32412;51.478;5.694;2023-08-06T08:12:01;16.20;99.90
46676;DHT22;32412;51.478;5.694;2023-08-06T08:14:28;16.10;99.90
46676;DHT22;32412;51.478;5.694;2023-08-06T08:16:54;16.10;99.90
46676;DHT22;32412;51.478;5.694;2023-08-06T08:19:26;15.90;99.90
46676;DHT22;32412;51.478;5.694;2023-08-06T08:21:52;15.80;99.90
46676;DHT22;32412;51.478;5.694;2023-08-06T08:24:17;15.70;99.90
46676;DHT22;32412;51.478;5.694;2023-08-06T08:26:45;15.60;99.90
46676;DHT22;32412;51.478;5.694;2023-08-06T08:29:10;15.40;99.90
46676;DHT22;32412;51.478;5.694;2023-08-06T08:31:36;15.30;99.90
46676;DHT22;32412;51.478;5.694;2023-08-06T08:34:05;15.20;99.90
46676;DHT22;32412;51.478;5.694;2023-08-06T08:36:31;15.10;99.90
46676;DHT22;32412;51.478;5.694;2023-08-06T08:38:57;15.00;99.90
46676;DHT22;32412;51.478;5.694;2023-08-06T08:41:23;14.90;99.90
46676;DHT22;32412;51.478;5.694;2023-08-06T08:43:51;14.90;99.90
46676;DHT22;32412;51.478;5.694;2023-08-06T08:46:19;14.80;99.90
46676;DHT22;32412;51.478;5.694;2023-08-06T08:48:45;14.60;99.90
46676;DHT22;32412;51.478;5.694;2023-08-06T08:51:13;14.60;99.90
46676;DHT22;32412;51.478;5.694;2023-08-06T08:53:39;14.60;99.90
46676;DHT22;32412;51.478;5.694;2023-08-06T08:56:05;14.60;99.90
46676;DHT22;32412;51.478;5.694;2023-08-06T08:58:31;14.60;99.90
46676;DHT22;32412;51.478;5.694;2023-08-06T09:00:57;14.60;99.90
46676;DHT22;32412;51.478;5.694;2023-08-06T09:03:23;14.60;99.90
46676;DHT22;32412;51.478;5.694;2023-08-06T09:05:53;14.60;99.90
46676;DHT22;32412;51.478;5.694;2023-08-06T09:08:23;14.70;99.90
46676;DHT22;32412;51.478;5.694;2023-08-06T09:10:49;14.70;99.90
46676;DHT22;32412;51.478;5.694;2023-08-06T09:13:15;14.80;99.90
46676;DHT22;32412;51.478;5.694;2023-08-06T09:15:41;14.80;99.90
46676;DHT22;32412;51.478;5.694;2023-08-06T09:18:10;14.70;99.90
46676;DHT22;32412;51.478;5.694;2023-08-06T09:20:38;14.70;99.90
46676;DHT22;32412;51.478;5.694;2023-08-06T09:23:08;14.70;99.90
46676;DHT22;32412;51.478;5.694;2023-08-06T09:25:39;14.80;99.90
46676;DHT22;32412;51.478;5.694;2023-08-06T09:28:06;14.80;99.90
46676;DHT22;32412;51.478;5.694;2023-08-06T09:30:34;14.70;99.90
46676;DHT22;32412;51.478;5.694;2023-08-06T09:32:59;14.80;99.90
46676;DHT22;32412;51.478;5.694;2023-08-06T09:35:30;14.70;99.90
46676;DHT22;32412;51.478;5.694;2023-08-06T09:38:06;14.70;99.90
46676;DHT22;32412;51.478;5.694;2023-08-06T09:40:36;14.70;99.90
46676;DHT22;32412;51.478;5.694;2023-08-06T09:43:02;14.70;99.90
46676;DHT22;32412;51.478;5.694;2023-08-06T09:45:31;14.70;99.90
46676;DHT22;32412;51.478;5.694;2023-08-06T09:47:58;14.80;99.90
46676;DHT22;32412;51.478;5.694;2023-08-06T09:50:29;14.80;99.90
46676;DHT22;32412;51.478;5.694;2023-08-06T09:52:57;14.90;99.90
46676;DHT22;32412;51.478;5.694;2023-08-06T09:55:24;15.00;99.90
46676;DHT22;32412;51.478;5.694;2023-08-06T09:57:52;15.00;99.90
46676;DHT22;32412;51.478;5.694;2023-08-06T10:00:18;15.10;99.90
46676;DHT22;32412;51.478;5.694;2023-08-06T10:02:44;15.10;99.90
46676;DHT22;32412;51.478;5.694;2023-08-06T10:05:10;15.10;99.90
46676;DHT22;32412;51.478;5.694;2023-08-06T10:07:36;15.10;99.90
46676;DHT22;32412;51.478;5.694;2023-08-06T10:10:05;15.00;99.90
46676;DHT22;32412;51.478;5.694;2023-08-06T10:12:34;15.20;99.90
46676;DHT22;32412;51.478;5.694;2023-08-06T10:15:03;15.20;99.90
46676;DHT22;32412;51.478;5.694;2023-08-06T10:17:31;15.20;99.90
46676;DHT22;32412;51.478;5.694;2023-08-06T10:19:59;15.20;99.90
46676;DHT22;32412;51.478;5.694;2023-08-06T10:22:25;15.30;99.90
46676;DHT22;32412;51.478;5.694;2023-08-06T10:24:57;15.30;99.90
46676;DHT22;32412;51.478;5.694;2023-08-06T10:27:34;15.30;99.90
46676;DHT22;32412;51.478;5.694;2023-08-06T10:30:30;15.20;99.90
46676;DHT22;32412;51.478;5.694;2023-08-06T10:33:04;15.10;99.90
46676;DHT22;32412;51.478;5.694;2023-08-06T10:35:31;15.10;99.90
46676;DHT22;32412;51.478;5.694;2023-08-06T10:38:04;15.00;99.90
46676;DHT22;32412;51.478;5.694;2023-08-06T10:40:31;15.10;99.90
46676;DHT22;32412;51.478;5.694;2023-08-06T10:43:04;15.10;99.90
46676;DHT22;32412;51.478;5.694;2023-08-06T10:45:35;15.10;99.90
46676;DHT22;32412;51.478;5.694;2023-08-06T10:48:04;15.10;99.90
46676;DHT22;32412;51.478;5.694;2023-08-06T10:50:30;15.10;99.90
46676;DHT22;32412;51.478;5.694;2023-08-06T10:52:57;15.10;99.90
46676;DHT22;32412;51.478;5.694;2023-08-06T10:55:28;15.20;99.90
46676;DHT22;32412;51.478;5.694;2023-08-06T10:57:55;15.20;99.90
46676;DHT22;32412;51.478;5.694;2023-08-06T11:00:22;15.10;99.90
46676;DHT22;32412;51.478;5.694;2023-08-06T11:02:49;15.10;99.90
46676;DHT22;32412;51.478;5.694;2023-08-06T11:05:15;15.10;99.90
46676;DHT22;32412;51.478;5.694;2023-08-06T11:07:41;15.10;99.90
46676;DHT22;32412;51.478;5.694;2023-08-06T11:10:09;15.10;99.90
46676;DHT22;32412;51.478;5.694;2023-08-06T11:12:36;15.10;99.90
46676;DHT22;32412;51.478;5.694;2023-08-06T11:15:02;15.10;99.90
46676;DHT22;32412;51.478;5.694;2023-08-06T11:17:29;15.20;99.90
46676;DHT22;32412;51.478;5.694;2023-08-06T11:19:55;15.20;99.90
46676;DHT22;32412;51.478;5.694;2023-08-06T11:22:21;15.20;99.90
46676;DHT22;32412;51.478;5.694;2023-08-06T11:24:48;15.20;99.90
46676;DHT22;32412;51.478;5.694;2023-08-06T11:27:15;15.20;99.90
46676;DHT22;32412;51.478;5.694;2023-08-06T11:29:42;15.10;99.90
46676;DHT22;32412;51.478;5.694;2023-08-06T11:32:09;15.20;99.90
46676;DHT22;32412;51.478;5.694;2023-08-06T11:34:35;15.20;99.90
46676;DHT22;32412;51.478;5.694;2023-08-06T11:37:03;15.20;99.90
46676;DHT22;32412;51.478;5.694;2023-08-06T11:39:30;15.20;99.90
46676;DHT22;32412;51.478;5.694;2023-08-06T11:41:56;15.20;99.90
46676;DHT22;32412;51.478;5.694;2023-08-06T11:44:22;15.20;99.90
46676;DHT22;32412;51.478;5.694;2023-08-06T11:46:54;15.20;99.90
46676;DHT22;32412;51.478;5.694;2023-08-06T11:49:40;15.20;99.90
46676;DHT22;32412;51.478;5.694;2023-08-06T11:52:22;15.20;99.90
46676;DHT22;32412;51.478;5.694;2023-08-06T11:55:05;15.10;99.90
46676;DHT22;32412;51.478;5.694;2023-08-06T11:57:34;15.20;99.90
46676;DHT22;32412;51.478;5.694;2023-08-06T12:00:04;15.20;99.90
46676;DHT22;32412;51.478;5.694;2023-08-06T12:02:31;15.30;99.90
46676;DHT22;32412;51.478;5.694;2023-08-06T12:05:13;15.50;99.90
46676;DHT22;32412;51.478;5.694;2023-08-06T12:07:48;15.70;99.90
46676;DHT22;32412;51.478;5.694;2023-08-06T12:10:15;15.80;99.90
46676;DHT22;32412;51.478;5.694;2023-08-06T12:12:41;15.90;99.90
46676;DHT22;32412;51.478;5.694;2023-08-06T12:15:08;16.10;99.90
46676;DHT22;32412;51.478;5.694;2023-08-06T12:17:34;16.30;99.90
46676;DHT22;32412;51.478;5.694;2023-08-06T12:20:05;16.50;99.90
46676;DHT22;32412;51.478;5.694;2023-08-06T12:22:31;16.40;99.90
46676;DHT22;32412;51.478;5.694;2023-08-06T12:25:01;16.60;99.90
46676;DHT22;32412;51.478;5.694;2023-08-06T12:27:28;16.70;99.90
46676;DHT22;32412;51.478;5.694;2023-08-06T12:29:54;16.70;99.90
46676;DHT22;32412;51.478;5.694;2023-08-06T12:32:19;16.70;99.90
46676;DHT22;32412;51.478;5.694;2023-08-06T12:34:45;16.70;99.90
46676;DHT22;32412;51.478;5.694;2023-08-06T12:37:11;16.80;99.90
46676;DHT22;32412;51.478;5.694;2023-08-06T12:39:37;17.00;99.90
46676;DHT22;32412;51.478;5.694;2023-08-06T12:42:04;17.00;99.90
46676;DHT22;32412;51.478;5.694;2023-08-06T12:44:30;17.10;99.90
46676;DHT22;32412;51.478;5.694;2023-08-06T12:46:56;17.10;99.90
46676;DHT22;32412;51.478;5.694;2023-08-06T12:49:26;17.10;99.90
46676;DHT22;32412;51.478;5.694;2023-08-06T12:51:53;17.20;99.90
46676;DHT22;32412;51.478;5.694;2023-08-06T12:54:21;17.20;99.90
46676;DHT22;32412;51.478;5.694;2023-08-06T12:56:47;17.30;99.90
46676;DHT22;32412;51.478;5.694;2023-08-06T12:59:16;17.30;99.90
46676;DHT22;32412;51.478;5.694;2023-08-06T13:01:43;17.40;99.90
46676;DHT22;32412;51.478;5.694;2023-08-06T13:04:09;17.30;99.90
46676;DHT22;32412;51.478;5.694;2023-08-06T13:06:35;17.30;99.90
46676;DHT22;32412;51.478;5.694;2023-08-06T13:09:09;17.30;99.90
46676;DHT22;32412;51.478;5.694;2023-08-06T13:11:36;17.20;99.90
46676;DHT22;32412;51.478;5.694;2023-08-06T13:14:11;17.20;99.90
46676;DHT22;32412;51.478;5.694;2023-08-06T13:16:38;17.00;99.90
46676;DHT22;32412;51.478;5.694;2023-08-06T13:19:05;16.80;99.90
46676;DHT22;32412;51.478;5.694;2023-08-06T13:21:33;16.60;99.90
46676;DHT22;32412;51.478;5.694;2023-08-06T13:24:02;16.30;99.90
46676;DHT22;32412;51.478;5.694;2023-08-06T13:26:29;16.00;99.90
46676;DHT22;32412;51.478;5.694;2023-08-06T13:28:56;15.80;99.90
46676;DHT22;32412;51.478;5.694;2023-08-06T13:31:22;15.60;99.90
46676;DHT22;32412;51.478;5.694;2023-08-06T13:33:48;15.50;99.90
46676;DHT22;32412;51.478;5.694;2023-08-06T13:36:18;15.50;99.90
46676;DHT22;32412;51.478;5.694;2023-08-06T13:38:43;15.40;99.90
46676;DHT22;32412;51.478;5.694;2023-08-06T13:41:09;15.30;99.90
46676;DHT22;32412;51.478;5.694;2023-08-06T13:43:35;15.30;99.90
46676;DHT22;32412;51.478;5.694;2023-08-06T13:46:00;15.50;99.90
46676;DHT22;32412;51.478;5.694;2023-08-06T13:48:26;15.60;99.90
46676;DHT22;32412;51.478;5.694;2023-08-06T13:50:52;15.70;99.90
46676;DHT22;32412;51.478;5.694;2023-08-06T13:53:18;15.70;99.90
46676;DHT22;32412;51.478;5.694;2023-08-06T13:55:43;15.60;99.90
46676;DHT22;32412;51.478;5.694;2023-08-06T13:58:09;15.60;99.90
46676;DHT22;32412;51.478;5.694;2023-08-06T14:00:38;15.60;99.90
46676;DHT22;32412;51.478;5.694;2023-08-06T14:03:04;15.60;99.90
46676;DHT22;32412;51.478;5.694;2023-08-06T14:05:30;15.70;99.90
46676;DHT22;32412;51.478;5.694;2023-08-06T14:07:55;15.70;99.90
46676;DHT22;32412;51.478;5.694;2023-08-06T14:10:21;15.70;99.90
46676;DHT22;32412;51.478;5.694;2023-08-06T14:12:47;15.70;99.90
46676;DHT22;32412;51.478;5.694;2023-08-06T14:15:13;15.80;99.90
46676;DHT22;32412;51.478;5.694;2023-08-06T14:17:38;15.80;99.90
46676;DHT22;32412;51.478;5.694;2023-08-06T14:20:06;15.80;99.90
46676;DHT22;32412;51.478;5.694;2023-08-06T14:22:33;15.90;99.90
46676;DHT22;32412;51.478;5.694;2023-08-06T14:24:59;16.00;99.90
46676;DHT22;32412;51.478;5.694;2023-08-06T14:27:25;16.10;99.90
46676;DHT22;32412;51.478;5.694;2023-08-06T14:29:51;15.90;99.90
46676;DHT22;32412;51.478;5.694;2023-08-06T14:32:16;15.90;99.90
46676;DHT22;32412;51.478;5.694;2023-08-06T14:34:45;15.80;99.90
46676;DHT22;32412;51.478;5.694;2023-08-06T14:37:11;15.80;99.90
46676;DHT22;32412;51.478;5.694;2023-08-06T14:39:37;15.70;99.90
46676;DHT22;32412;51.478;5.694;2023-08-06T14:42:04;15.60;99.90
46676;DHT22;32412;51.478;5.694;2023-08-06T14:44:30;15.60;99.90
46676;DHT22;32412;51.478;5.694;2023-08-06T14:46:56;15.60;99.90
46676;DHT22;32412;51.478;5.694;2023-08-06T14:49:21;15.60;99.90
46676;DHT22;32412;51.478;5.694;2023-08-06T14:51:47;15.60;99.90
46676;DHT22;32412;51.478;5.694;2023-08-06T14:54:13;15.60;99.90
46676;DHT22;32412;51.478;5.694;2023-08-06T14:56:39;15.50;99.90
46676;DHT22;32412;51.478;5.694;2023-08-06T14:59:04;15.30;99.90
46676;DHT22;32412;51.478;5.694;2023-08-06T15:01:30;15.10;99.90
46676;DHT22;32412;51.478;5.694;2023-08-06T15:03:56;14.80;99.90
46676;DHT22;32412;51.478;5.694;2023-08-06T15:06:21;14.70;99.90
46676;DHT22;32412;51.478;5.694;2023-08-06T15:08:47;14.60;99.90
46676;DHT22;32412;51.478;5.694;2023-08-06T15:11:13;14.60;99.90
46676;DHT22;32412;51.478;5.694;2023-08-06T15:13:40;14.60;99.90
46676;DHT22;32412;51.478;5.694;2023-08-06T15:16:06;14.60;99.90
46676;DHT22;32412;51.478;5.694;2023-08-06T15:18:31;14.70;99.90
46676;DHT22;32412;51.478;5.694;2023-08-06T15:20:57;14.60;99.90
46676;DHT22;32412;51.478;5.694;2023-08-06T15:23:23;14.60;99.90
46676;DHT22;32412;51.478;5.694;2023-08-06T15:25:52;14.60;99.90
46676;DHT22;32412;51.478;5.694;2023-08-06T15:28:18;14.50;99.90
46676;DHT22;32412;51.478;5.694;2023-08-06T15:30:51;14.60;99.90
46676;DHT22;32412;51.478;5.694;2023-08-06T15:33:20;14.50;99.90